sensor_id;sensor_type;location;lat;lon;timestamp;P1;durP1;ratioP1;P2;durP2;ratioP2
24663;SDS011;12791;50.992;13.788;2022-11-15T04:01:03;57.75;;;36.55;;
24663;SDS011;12791;50.992;13.788;2022-11-15T04:03:30;52.88;;;34.42;;
24663;SDS011;12791;50.992;13.788;2022-11-15T04:05:57;59.10;;;38.30;;
24663;SDS011;12791;50.992;13.788;2022-11-15T04:08:24;57.58;;;38.20;;
24663;SDS011;12791;50.992;13.788;2022-11-15T04:10:50;56.35;;;37.60;;
24663;SDS011;12791;50.992;13.788;2022-11-15T04:13:17;58.90;;;36.80;;
24663;SDS011;12791;50.992;13.788;2022-11-15T04:15:44;61.92;;;38.67;;
24663;SDS011;12791;50.992;13.788;2022-11-15T04:18:12;60.97;;;38.47;;
24663;SDS011;12791;50.992;13.788;2022-11-15T04:20:39;56.17;;;36.42;;
24663;SDS011;12791;50.992;13.788;2022-11-15T04:23:23;56.22;;;36.25;;
24663;SDS011;12791;50.992;13.788;2022-11-15T04:26:08;55.20;;;36.72;;
24663;SDS011;12791;50.992;13.788;2022-11-15T04:28:38;54.40;;;34.25;;
24663;SDS011;12791;50.992;13.788;2022-11-15T04:31:25;55.80;;;37.10;;
24663;SDS011;12791;50.992;13.788;2022-11-15T04:33:54;60.33;;;37.00;;
24663;SDS011;12791;50.992;13.788;2022-11-15T04:36:21;56.03;;;37.50;;
24663;SDS011;12791;50.992;13.788;2022-11-15T04:39:06;56.30;;;36.30;;
24663;SDS011;12791;50.992;13.788;2022-11-15T04:41:32;56.58;;;36.50;;
24663;SDS011;12791;50.992;13.788;2022-11-15T04:43:59;52.30;;;34.67;;
24663;SDS011;12791;50.992;13.788;2022-11-15T04:46:26;54.38;;;35.70;;
24663;SDS011;12791;50.992;13.788;2022-11-15T04:48:54;54.75;;;35.58;;
24663;SDS011;12791;50.992;13.788;2022-11-15T04:51:21;53.58;;;35.55;;
24663;SDS011;12791;50.992;13.788;2022-11-15T04:53:48;54.55;;;36.13;;
24663;SDS011;12791;50.992;13.788;2022-11-15T04:56:15;51.22;;;33.22;;
24663;SDS011;12791;50.992;13.788;2022-11-15T04:58:42;55.67;;;35.65;;
24663;SDS011;12791;50.992;13.788;2022-11-15T05:01:09;50.33;;;33.20;;
24663;SDS011;12791;50.992;13.788;2022-11-15T05:03:36;50.50;;;33.13;;
24663;SDS011;12791;50.992;13.788;2022-11-15T05:06:22;51.30;;;32.13;;
24663;SDS011;12791;50.992;13.788;2022-11-15T05:08:49;48.22;;;32.45;;
24663;SDS011;12791;50.992;13.788;2022-11-15T05:11:16;47.70;;;31.65;;
24663;SDS011;12791;50.992;13.788;2022-11-15T05:13:43;47.95;;;31.90;;
24663;SDS011;12791;50.992;13.788;2022-11-15T05:16:09;44.40;;;31.10;;
24663;SDS011;12791;50.992;13.788;2022-11-15T05:18:36;51.55;;;33.17;;
24663;SDS011;12791;50.992;13.788;2022-11-15T05:21:05;47.30;;;31.83;;
24663;SDS011;12791;50.992;13.788;2022-11-15T05:23:35;49.50;;;34.40;;
24663;SDS011;12791;50.992;13.788;2022-11-15T05:26:03;54.65;;;34.97;;
24663;SDS011;12791;50.992;13.788;2022-11-15T05:28:31;51.35;;;33.13;;
24663;SDS011;12791;50.992;13.788;2022-11-15T05:31:00;49.30;;;32.30;;
24663;SDS011;12791;50.992;13.788;2022-11-15T05:33:27;51.10;;;34.13;;
24663;SDS011;12791;50.992;13.788;2022-11-15T05:35:55;53.13;;;34.10;;
24663;SDS011;12791;50.992;13.788;2022-11-15T05:38:26;50.78;;;34.10;;
24663;SDS011;12791;50.992;13.788;2022-11-15T05:40:55;51.53;;;33.80;;
24663;SDS011;12791;50.992;13.788;2022-11-15T05:43:21;51.60;;;34.70;;
24663;SDS011;12791;50.992;13.788;2022-11-15T05:45:49;51.60;;;33.22;;
24663;SDS011;12791;50.992;13.788;2022-11-15T05:48:16;51.58;;;34.83;;
24663;SDS011;12791;50.992;13.788;2022-11-15T05:50:44;52.13;;;34.08;;
24663;SDS011;12791;50.992;13.788;2022-11-15T05:53:13;54.67;;;35.53;;
24663;SDS011;12791;50.992;13.788;2022-11-15T05:55:44;53.42;;;35.25;;
24663;SDS011;12791;50.992;13.788;2022-11-15T05:58:13;53.22;;;34.95;;
24663;SDS011;12791;50.992;13.788;2022-11-15T06:00:40;54.17;;;35.42;;
24663;SDS011;12791;50.992;13.788;2022-11-15T06:03:08;55.88;;;35.28;;
24663;SDS011;12791;50.992;13.788;2022-11-15T06:05:35;55.90;;;36.03;;
24663;SDS011;12791;50.992;13.788;2022-11-15T06:08:02;52.88;;;35.13;;
24663;SDS011;12791;50.992;13.788;2022-11-15T06:10:29;53.58;;;35.47;;
24663;SDS011;12791;50.992;13.788;2022-11-15T06:12:56;56.67;;;36.45;;
24663;SDS011;12791;50.992;13.788;2022-11-15T06:15:25;58.75;;;36.72;;
24663;SDS011;12791;50.992;13.788;2022-11-15T06:17:53;52.72;;;34.47;;
24663;SDS011;12791;50.992;13.788;2022-11-15T06:20:23;52.88;;;35.38;;
24663;SDS011;12791;50.992;13.788;2022-11-15T06:22:50;54.42;;;35.38;;
24663;SDS011;12791;50.992;13.788;2022-11-15T06:25:17;56.10;;;35.75;;
24663;SDS011;12791;50.992;13.788;2022-11-15T06:27:43;54.80;;;35.47;;
24663;SDS011;12791;50.992;13.788;2022-11-15T06:30:16;51.67;;;34.65;;
24663;SDS011;12791;50.992;13.788;2022-11-15T06:32:44;53.85;;;35.80;;
24663;SDS011;12791;50.992;13.788;2022-11-15T06:35:11;57.92;;;37.15;;
24663;SDS011;12791;50.992;13.788;2022-11-15T06:37:38;52.47;;;33.65;;
24663;SDS011;12791;50.992;13.788;2022-11-15T06:40:06;49.72;;;32.72;;
24663;SDS011;12791;50.992;13.788;2022-11-15T06:42:34;50.85;;;34.75;;
24663;SDS011;12791;50.992;13.788;2022-11-15T06:45:00;52.63;;;34.72;;
24663;SDS011;12791;50.992;13.788;2022-11-15T06:47:28;52.47;;;34.58;;
24663;SDS011;12791;50.992;13.788;2022-11-15T06:49:56;50.90;;;34.45;;
24663;SDS011;12791;50.992;13.788;2022-11-15T06:52:22;56.22;;;36.13;;
24663;SDS011;12791;50.992;13.788;2022-11-15T06:54:49;53.95;;;35.40;;
24663;SDS011;12791;50.992;13.788;2022-11-15T06:57:16;51.50;;;33.85;;
24663;SDS011;12791;50.992;13.788;2022-11-15T06:59:43;53.00;;;34.45;;
24663;SDS011;12791;50.992;13.788;2022-11-15T07:02:11;58.38;;;36.30;;
24663;SDS011;12791;50.992;13.788;2022-11-15T07:04:39;54.08;;;35.63;;
24663;SDS011;12791;50.992;13.788;2022-11-15T07:07:07;54.70;;;35.38;;
24663;SDS011;12791;50.992;13.788;2022-11-15T07:09:34;50.05;;;34.42;;
24663;SDS011;12791;50.992;13.788;2022-11-15T07:12:01;56.55;;;35.67;;
24663;SDS011;12791;50.992;13.788;2022-11-15T07:14:27;51.95;;;34.03;;
24663;SDS011;12791;50.992;13.788;2022-11-15T07:16:54;51.95;;;35.15;;
24663;SDS011;12791;50.992;13.788;2022-11-15T07:19:21;52.67;;;34.78;;
24663;SDS011;12791;50.992;13.788;2022-11-15T07:21:48;58.33;;;36.35;;
24663;SDS011;12791;50.992;13.788;2022-11-15T07:24:16;57.08;;;36.65;;
24663;SDS011;12791;50.992;13.788;2022-11-15T07:26:43;56.30;;;35.47;;
24663;SDS011;12791;50.992;13.788;2022-11-15T07:29:10;53.10;;;34.95;;
24663;SDS011;12791;50.992;13.788;2022-11-15T07:31:36;60.13;;;37.05;;
24663;SDS011;12791;50.992;13.788;2022-11-15T07:34:03;58.78;;;37.42;;
24663;SDS011;12791;50.992;13.788;2022-11-15T07:36:30;57.58;;;36.20;;
24663;SDS011;12791;50.992;13.788;2022-11-15T07:38:57;56.40;;;34.92;;
24663;SDS011;12791;50.992;13.788;2022-11-15T07:41:25;53.67;;;34.67;;
24663;SDS011;12791;50.992;13.788;2022-11-15T07:43:52;53.70;;;34.33;;
24663;SDS011;12791;50.992;13.788;2022-11-15T07:46:19;55.67;;;34.67;;
24663;SDS011;12791;50.992;13.788;2022-11-15T07:48:45;54.83;;;34.95;;
24663;SDS011;12791;50.992;13.788;2022-11-15T07:51:12;54.17;;;34.58;;
24663;SDS011;12791;50.992;13.788;2022-11-15T07:53:39;52.38;;;33.60;;
24663;SDS011;12791;50.992;13.788;2022-11-15T07:56:06;56.63;;;36.22;;
24663;SDS011;12791;50.992;13.788;2022-11-15T07:58:35;52.80;;;35.40;;
24663;SDS011;12791;50.992;13.788;2022-11-15T08:01:02;55.33;;;33.78;;
24663;SDS011;12791;50.992;13.788;2022-11-15T08:03:29;51.88;;;33.25;;
24663;SDS011;12791;50.992;13.788;2022-11-15T08:05:56;57.60;;;35.33;;
24663;SDS011;12791;50.992;13.788;2022-11-15T08:08:23;54.08;;;35.08;;
24663;SDS011;12791;50.992;13.788;2022-11-15T08:10:49;55.28;;;35.30;;
24663;SDS011;12791;50.992;13.788;2022-11-15T08:13:16;56.50;;;35.13;;
24663;SDS011;12791;50.992;13.788;2022-11-15T08:15:44;51.50;;;33.88;;
24663;SDS011;12791;50.992;13.788;2022-11-15T08:18:12;51.35;;;33.20;;
24663;SDS011;12791;50.992;13.788;2022-11-15T08:20:40;46.47;;;31.25;;
24663;SDS011;12791;50.992;13.788;2022-11-15T08:23:09;47.85;;;31.25;;
24663;SDS011;12791;50.992;13.788;2022-11-15T08:25:37;47.70;;;30.58;;
24663;SDS011;12791;50.992;13.788;2022-11-15T08:28:05;48.30;;;31.63;;
24663;SDS011;12791;50.992;13.788;2022-11-15T08:30:34;45.58;;;30.65;;
24663;SDS011;12791;50.992;13.788;2022-11-15T08:33:04;46.03;;;30.83;;
24663;SDS011;12791;50.992;13.788;2022-11-15T08:35:31;44.50;;;31.15;;
24663;SDS011;12791;50.992;13.788;2022-11-15T08:37:57;46.63;;;30.27;;
24663;SDS011;12791;50.992;13.788;2022-11-15T08:40:24;44.63;;;29.52;;
24663;SDS011;12791;50.992;13.788;2022-11-15T08:42:52;40.78;;;29.27;;
24663;SDS011;12791;50.992;13.788;2022-11-15T08:45:19;49.30;;;31.13;;
24663;SDS011;12791;50.992;13.788;2022-11-15T08:47:45;44.95;;;29.83;;
24663;SDS011;12791;50.992;13.788;2022-11-15T08:50:14;47.28;;;31.08;;
24663;SDS011;12791;50.992;13.788;2022-11-15T08:52:41;43.97;;;30.90;;
24663;SDS011;12791;50.992;13.788;2022-11-15T08:55:08;41.08;;;28.33;;
24663;SDS011;12791;50.992;13.788;2022-11-15T08:57:35;40.58;;;28.15;;
24663;SDS011;12791;50.992;13.788;2022-11-15T09:00:02;44.38;;;29.48;;
24663;SDS011;12791;50.992;13.788;2022-11-15T09:02:30;43.17;;;28.95;;
24663;SDS011;12791;50.992;13.788;2022-11-15T09:04:57;41.70;;;28.50;;
24663;SDS011;12791;50.992;13.788;2022-11-15T09:07:26;46.15;;;29.73;;
24663;SDS011;12791;50.992;13.788;2022-11-15T09:09:54;49.65;;;33.05;;
24663;SDS011;12791;50.992;13.788;2022-11-15T09:12:22;48.92;;;32.55;;
24663;SDS011;12791;50.992;13.788;2022-11-15T09:14:48;50.92;;;36.22;;
24663;SDS011;12791;50.992;13.788;2022-11-15T09:17:16;49.20;;;32.83;;
24663;SDS011;12791;50.992;13.788;2022-11-15T09:19:42;45.67;;;31.10;;
24663;SDS011;12791;50.992;13.788;2022-11-15T09:22:09;48.40;;;31.83;;
24663;SDS011;12791;50.992;13.788;2022-11-15T09:24:37;47.50;;;31.73;;
24663;SDS011;12791;50.992;13.788;2022-11-15T09:27:04;44.45;;;30.15;;
24663;SDS011;12791;50.992;13.788;2022-11-15T09:29:31;50.00;;;33.03;;
24663;SDS011;12791;50.992;13.788;2022-11-15T09:31:58;47.33;;;31.45;;
24663;SDS011;12791;50.992;13.788;2022-11-15T09:34:25;45.05;;;31.73;;
24663;SDS011;12791;50.992;13.788;2022-11-15T09:36:52;46.38;;;32.78;;
24663;SDS011;12791;50.992;13.788;2022-11-15T09:39:19;45.30;;;30.90;;
24663;SDS011;12791;50.992;13.788;2022-11-15T09:42:01;45.65;;;31.48;;
24663;SDS011;12791;50.992;13.788;2022-11-15T09:44:56;48.47;;;32.15;;
24663;SDS011;12791;50.992;13.788;2022-11-15T09:50:28;47.63;;;31.98;;
24663;SDS011;12791;50.992;13.788;2022-11-15T09:53:00;49.92;;;32.47;;
24663;SDS011;12791;50.992;13.788;2022-11-15T09:55:31;48.50;;;32.28;;
24663;SDS011;12791;50.992;13.788;2022-11-15T09:58:08;48.35;;;32.63;;
24663;SDS011;12791;50.992;13.788;2022-11-15T10:00:45;55.15;;;32.45;;
24663;SDS011;12791;50.992;13.788;2022-11-15T10:03:18;46.95;;;31.17;;
24663;SDS011;12791;50.992;13.788;2022-11-15T10:05:51;48.05;;;32.00;;
24663;SDS011;12791;50.992;13.788;2022-11-15T10:08:27;45.17;;;31.20;;
24663;SDS011;12791;50.992;13.788;2022-11-15T10:11:04;47.08;;;31.38;;
24663;SDS011;12791;50.992;13.788;2022-11-15T10:13:35;43.95;;;31.02;;
24663;SDS011;12791;50.992;13.788;2022-11-15T10:16:08;48.40;;;30.48;;
24663;SDS011;12791;50.992;13.788;2022-11-15T10:18:44;41.47;;;30.40;;
24663;SDS011;12791;50.992;13.788;2022-11-15T10:21:20;45.42;;;30.42;;
24663;SDS011;12791;50.992;13.788;2022-11-15T10:23:49;46.67;;;30.70;;
24663;SDS011;12791;50.992;13.788;2022-11-15T10:26:17;47.17;;;29.90;;
24663;SDS011;12791;50.992;13.788;2022-11-15T10:28:45;44.03;;;29.63;;
24663;SDS011;12791;50.992;13.788;2022-11-15T10:31:21;47.88;;;31.77;;
24663;SDS011;12791;50.992;13.788;2022-11-15T10:33:49;44.72;;;28.92;;
24663;SDS011;12791;50.992;13.788;2022-11-15T10:36:21;45.70;;;30.65;;
24663;SDS011;12791;50.992;13.788;2022-11-15T10:38:54;47.83;;;30.52;;
24663;SDS011;12791;50.992;13.788;2022-11-15T10:41:29;42.60;;;30.35;;
24663;SDS011;12791;50.992;13.788;2022-11-15T10:44:09;44.13;;;30.27;;
24663;SDS011;12791;50.992;13.788;2022-11-15T10:46:46;44.88;;;28.02;;
24663;SDS011;12791;50.992;13.788;2022-11-15T10:49:15;44.72;;;28.63;;
24663;SDS011;12791;50.992;13.788;2022-11-15T10:51:44;46.50;;;30.77;;
24663;SDS011;12791;50.992;13.788;2022-11-15T10:54:14;39.67;;;27.90;;
24663;SDS011;12791;50.992;13.788;2022-11-15T10:56:48;44.58;;;30.67;;
24663;SDS011;12791;50.992;13.788;2022-11-15T10:59:22;42.15;;;28.67;;
24663;SDS011;12791;50.992;13.788;2022-11-15T11:01:52;41.85;;;28.73;;
24663;SDS011;12791;50.992;13.788;2022-11-15T11:04:19;43.38;;;28.63;;
24663;SDS011;12791;50.992;13.788;2022-11-15T11:06:46;38.30;;;26.90;;
24663;SDS011;12791;50.992;13.788;2022-11-15T11:09:22;41.63;;;28.63;;
24663;SDS011;12791;50.992;13.788;2022-11-15T11:11:54;38.72;;;27.08;;
24663;SDS011;12791;50.992;13.788;2022-11-15T11:14:23;40.00;;;28.30;;
24663;SDS011;12791;50.992;13.788;2022-11-15T11:16:52;38.55;;;27.80;;
24663;SDS011;12791;50.992;13.788;2022-11-15T11:19:29;37.10;;;26.30;;
24663;SDS011;12791;50.992;13.788;2022-11-15T11:22:12;40.28;;;27.15;;
24663;SDS011;12791;50.992;13.788;2022-11-15T11:24:48;39.42;;;26.48;;
24663;SDS011;12791;50.992;13.788;2022-11-15T11:27:28;39.03;;;26.08;;
24663;SDS011;12791;50.992;13.788;2022-11-15T11:30:06;41.72;;;27.00;;
24663;SDS011;12791;50.992;13.788;2022-11-15T11:35:37;39.58;;;27.48;;
24663;SDS011;12791;50.992;13.788;2022-11-15T11:38:17;38.38;;;26.67;;
24663;SDS011;12791;50.992;13.788;2022-11-15T11:40:59;40.92;;;26.73;;
24663;SDS011;12791;50.992;13.788;2022-11-15T11:43:34;45.88;;;28.13;;
24663;SDS011;12791;50.992;13.788;2022-11-15T11:46:13;42.08;;;27.15;;
24663;SDS011;12791;50.992;13.788;2022-11-15T11:48:55;42.75;;;29.67;;
24663;SDS011;12791;50.992;13.788;2022-11-15T11:51:28;41.13;;;27.35;;
24663;SDS011;12791;50.992;13.788;2022-11-15T11:54:00;39.83;;;27.65;;
24663;SDS011;12791;50.992;13.788;2022-11-15T11:56:31;38.13;;;26.48;;
24663;SDS011;12791;50.992;13.788;2022-11-15T11:59:02;45.80;;;28.67;;
24663;SDS011;12791;50.992;13.788;2022-11-15T12:01:39;38.95;;;25.63;;
24663;SDS011;12791;50.992;13.788;2022-11-15T12:04:09;45.05;;;28.88;;
24663;SDS011;12791;50.992;13.788;2022-11-15T12:06:41;43.00;;;27.38;;
24663;SDS011;12791;50.992;13.788;2022-11-15T12:09:13;43.55;;;28.27;;
24663;SDS011;12791;50.992;13.788;2022-11-15T12:11:46;37.63;;;25.80;;
24663;SDS011;12791;50.992;13.788;2022-11-15T12:14:23;41.53;;;27.65;;
24663;SDS011;12791;50.992;13.788;2022-11-15T12:16:56;43.75;;;30.90;;
24663;SDS011;12791;50.992;13.788;2022-11-15T12:19:24;42.10;;;28.30;;
24663;SDS011;12791;50.992;13.788;2022-11-15T12:21:52;41.42;;;27.60;;
24663;SDS011;12791;50.992;13.788;2022-11-15T12:24:24;38.53;;;25.50;;
24663;SDS011;12791;50.992;13.788;2022-11-15T12:27:00;38.45;;;26.35;;
24663;SDS011;12791;50.992;13.788;2022-11-15T12:29:31;39.38;;;27.08;;
24663;SDS011;12791;50.992;13.788;2022-11-15T12:32:04;38.58;;;26.52;;
24663;SDS011;12791;50.992;13.788;2022-11-15T12:34:42;37.13;;;25.88;;
24663;SDS011;12791;50.992;13.788;2022-11-15T12:40:05;38.92;;;25.75;;
24663;SDS011;12791;50.992;13.788;2022-11-15T12:42:57;36.50;;;26.10;;
24663;SDS011;12791;50.992;13.788;2022-11-15T12:45:29;41.13;;;27.23;;
24663;SDS011;12791;50.992;13.788;2022-11-15T12:57:34;38.90;;;25.45;;
24663;SDS011;12791;50.992;13.788;2022-11-15T13:00:20;35.33;;;25.90;;
24663;SDS011;12791;50.992;13.788;2022-11-15T13:03:16;37.53;;;25.98;;
24663;SDS011;12791;50.992;13.788;2022-11-15T13:06:08;37.30;;;26.23;;
24663;SDS011;12791;50.992;13.788;2022-11-15T13:08:56;37.30;;;25.88;;
24663;SDS011;12791;50.992;13.788;2022-11-15T13:17:16;36.30;;;25.63;;
24663;SDS011;12791;50.992;13.788;2022-11-15T13:19:56;37.67;;;26.20;;
24663;SDS011;12791;50.992;13.788;2022-11-15T13:22:27;37.17;;;26.35;;
24663;SDS011;12791;50.992;13.788;2022-11-15T13:25:15;39.53;;;27.67;;
24663;SDS011;12791;50.992;13.788;2022-11-15T13:27:47;37.08;;;27.17;;
24663;SDS011;12791;50.992;13.788;2022-11-15T13:30:16;40.20;;;26.88;;
24663;SDS011;12791;50.992;13.788;2022-11-15T13:32:46;38.37;;;27.33;;
24663;SDS011;12791;50.992;13.788;2022-11-15T13:35:18;38.28;;;27.17;;
24663;SDS011;12791;50.992;13.788;2022-11-15T13:37:47;35.47;;;26.02;;
24663;SDS011;12791;50.992;13.788;2022-11-15T13:40:25;41.67;;;27.70;;
24663;SDS011;12791;50.992;13.788;2022-11-15T13:42:56;38.63;;;27.45;;
24663;SDS011;12791;50.992;13.788;2022-11-15T13:45:24;39.78;;;27.33;;
24663;SDS011;12791;50.992;13.788;2022-11-15T13:47:51;40.42;;;26.95;;
24663;SDS011;12791;50.992;13.788;2022-11-15T13:50:20;36.15;;;25.42;;
24663;SDS011;12791;50.992;13.788;2022-11-15T13:52:51;38.33;;;26.52;;
24663;SDS011;12791;50.992;13.788;2022-11-15T13:55:18;39.95;;;26.90;;
24663;SDS011;12791;50.992;13.788;2022-11-15T13:57:47;37.03;;;26.48;;
24663;SDS011;12791;50.992;13.788;2022-11-15T14:00:35;40.03;;;27.08;;
24663;SDS011;12791;50.992;13.788;2022-11-15T14:03:05;36.45;;;25.23;;
24663;SDS011;12791;50.992;13.788;2022-11-15T14:05:40;38.22;;;25.83;;
24663;SDS011;12791;50.992;13.788;2022-11-15T14:08:12;36.15;;;25.55;;
24663;SDS011;12791;50.992;13.788;2022-11-15T14:10:48;36.88;;;26.27;;
24663;SDS011;12791;50.992;13.788;2022-11-15T14:13:33;39.28;;;26.52;;
24663;SDS011;12791;50.992;13.788;2022-11-15T14:16:13;39.03;;;26.50;;
24663;SDS011;12791;50.992;13.788;2022-11-15T14:18:43;39.38;;;26.35;;
24663;SDS011;12791;50.992;13.788;2022-11-15T14:21:11;40.08;;;27.58;;
24663;SDS011;12791;50.992;13.788;2022-11-15T14:23:38;33.63;;;24.33;;
24663;SDS011;12791;50.992;13.788;2022-11-15T14:26:05;43.42;;;29.05;;
24663;SDS011;12791;50.992;13.788;2022-11-15T14:28:37;40.35;;;27.35;;
24663;SDS011;12791;50.992;13.788;2022-11-15T14:31:06;36.42;;;25.70;;
24663;SDS011;12791;50.992;13.788;2022-11-15T14:33:39;34.20;;;24.75;;
24663;SDS011;12791;50.992;13.788;2022-11-15T14:36:10;37.45;;;26.23;;
24663;SDS011;12791;50.992;13.788;2022-11-15T14:38:38;36.30;;;24.42;;
24663;SDS011;12791;50.992;13.788;2022-11-15T14:41:05;35.33;;;24.55;;
24663;SDS011;12791;50.992;13.788;2022-11-15T14:43:36;33.08;;;22.85;;
24663;SDS011;12791;50.992;13.788;2022-11-15T14:46:03;37.88;;;25.92;;
24663;SDS011;12791;50.992;13.788;2022-11-15T14:48:31;34.08;;;23.05;;
24663;SDS011;12791;50.992;13.788;2022-11-15T14:50:59;30.73;;;22.58;;
24663;SDS011;12791;50.992;13.788;2022-11-15T14:53:25;35.17;;;24.00;;
24663;SDS011;12791;50.992;13.788;2022-11-15T14:55:52;32.95;;;22.23;;
24663;SDS011;12791;50.992;13.788;2022-11-15T14:58:19;32.60;;;23.77;;
24663;SDS011;12791;50.992;13.788;2022-11-15T15:00:45;31.52;;;22.17;;
24663;SDS011;12791;50.992;13.788;2022-11-15T15:03:12;28.75;;;22.05;;
24663;SDS011;12791;50.992;13.788;2022-11-15T15:05:40;33.35;;;23.45;;
24663;SDS011;12791;50.992;13.788;2022-11-15T15:08:09;28.42;;;20.88;;
24663;SDS011;12791;50.992;13.788;2022-11-15T15:10:37;31.38;;;22.77;;
24663;SDS011;12791;50.992;13.788;2022-11-15T15:13:05;33.00;;;23.10;;
24663;SDS011;12791;50.992;13.788;2022-11-15T15:15:36;32.17;;;21.27;;
24663;SDS011;12791;50.992;13.788;2022-11-15T15:18:04;32.60;;;22.17;;
24663;SDS011;12791;50.992;13.788;2022-11-15T15:20:34;32.40;;;22.48;;
24663;SDS011;12791;50.992;13.788;2022-11-15T15:23:01;29.10;;;21.00;;
24663;SDS011;12791;50.992;13.788;2022-11-15T15:25:30;31.33;;;21.58;;
24663;SDS011;12791;50.992;13.788;2022-11-15T15:27:59;30.33;;;20.75;;
24663;SDS011;12791;50.992;13.788;2022-11-15T15:30:28;29.88;;;21.08;;
24663;SDS011;12791;50.992;13.788;2022-11-15T15:32:55;28.65;;;19.92;;
24663;SDS011;12791;50.992;13.788;2022-11-15T15:35:22;28.65;;;20.45;;
24663;SDS011;12791;50.992;13.788;2022-11-15T15:37:55;30.25;;;20.63;;
24663;SDS011;12791;50.992;13.788;2022-11-15T15:40:22;27.85;;;20.15;;
24663;SDS011;12791;50.992;13.788;2022-11-15T15:42:51;30.13;;;20.88;;
24663;SDS011;12791;50.992;13.788;2022-11-15T15:45:18;31.75;;;21.10;;
24663;SDS011;12791;50.992;13.788;2022-11-15T15:47:45;32.45;;;21.55;;
24663;SDS011;12791;50.992;13.788;2022-11-15T15:50:17;31.02;;;21.45;;
24663;SDS011;12791;50.992;13.788;2022-11-15T15:55:14;30.48;;;21.85;;
24663;SDS011;12791;50.992;13.788;2022-11-15T15:57:41;30.92;;;22.17;;
24663;SDS011;12791;50.992;13.788;2022-11-15T16:00:10;30.92;;;21.50;;
24663;SDS011;12791;50.992;13.788;2022-11-15T16:02:37;30.20;;;22.33;;
24663;SDS011;12791;50.992;13.788;2022-11-15T16:05:04;28.20;;;21.08;;
24663;SDS011;12791;50.992;13.788;2022-11-15T16:07:32;32.42;;;21.75;;
24663;SDS011;12791;50.992;13.788;2022-11-15T16:09:58;29.70;;;20.60;;
24663;SDS011;12791;50.992;13.788;2022-11-15T16:12:29;30.30;;;22.05;;
24663;SDS011;12791;50.992;13.788;2022-11-15T16:14:57;36.40;;;23.08;;
24663;SDS011;12791;50.992;13.788;2022-11-15T16:17:26;31.60;;;21.65;;
24663;SDS011;12791;50.992;13.788;2022-11-15T16:19:56;31.40;;;22.38;;
24663;SDS011;12791;50.992;13.788;2022-11-15T16:22:22;30.50;;;21.48;;
24663;SDS011;12791;50.992;13.788;2022-11-15T16:24:49;32.35;;;22.27;;
24663;SDS011;12791;50.992;13.788;2022-11-15T16:27:17;30.63;;;21.88;;
24663;SDS011;12791;50.992;13.788;2022-11-15T16:29:46;28.98;;;20.95;;
24663;SDS011;12791;50.992;13.788;2022-11-15T16:32:13;31.30;;;21.90;;
24663;SDS011;12791;50.992;13.788;2022-11-15T16:34:42;31.13;;;21.15;;
24663;SDS011;12791;50.992;13.788;2022-11-15T16:37:12;31.25;;;21.92;;
24663;SDS011;12791;50.992;13.788;2022-11-15T16:39:47;30.38;;;21.52;;
24663;SDS011;12791;50.992;13.788;2022-11-15T16:42:14;29.15;;;21.33;;
24663;SDS011;12791;50.992;13.788;2022-11-15T16:44:41;29.63;;;20.77;;
24663;SDS011;12791;50.992;13.788;2022-11-15T16:47:11;30.60;;;20.67;;
24663;SDS011;12791;50.992;13.788;2022-11-15T16:49:44;30.73;;;20.00;;
24663;SDS011;12791;50.992;13.788;2022-11-15T16:52:11;32.08;;;21.23;;
24663;SDS011;12791;50.992;13.788;2022-11-15T16:54:38;28.35;;;21.10;;
24663;SDS011;12791;50.992;13.788;2022-11-15T16:57:05;30.30;;;21.77;;
24663;SDS011;12791;50.992;13.788;2022-11-15T16:59:33;30.45;;;21.73;;
24663;SDS011;12791;50.992;13.788;2022-11-15T17:02:00;34.00;;;23.50;;
24663;SDS011;12791;50.992;13.788;2022-11-15T17:04:26;32.88;;;23.83;;
24663;SDS011;12791;50.992;13.788;2022-11-15T17:06:59;31.23;;;21.85;;
24663;SDS011;12791;50.992;13.788;2022-11-15T17:09:25;30.27;;;21.45;;
24663;SDS011;12791;50.992;13.788;2022-11-15T17:11:52;28.55;;;21.08;;
24663;SDS011;12791;50.992;13.788;2022-11-15T17:14:19;31.27;;;22.75;;
24663;SDS011;12791;50.992;13.788;2022-11-15T17:16:46;30.85;;;21.75;;
24663;SDS011;12791;50.992;13.788;2022-11-15T17:19:13;30.70;;;21.67;;
24663;SDS011;12791;50.992;13.788;2022-11-15T17:21:41;29.67;;;20.00;;
24663;SDS011;12791;50.992;13.788;2022-11-15T17:24:10;32.20;;;22.25;;
24663;SDS011;12791;50.992;13.788;2022-11-15T17:26:37;29.50;;;21.48;;
24663;SDS011;12791;50.992;13.788;2022-11-15T17:29:04;33.72;;;23.00;;
24663;SDS011;12791;50.992;13.788;2022-11-15T17:31:32;31.55;;;22.33;;
24663;SDS011;12791;50.992;13.788;2022-11-15T17:34:00;32.85;;;22.80;;
24663;SDS011;12791;50.992;13.788;2022-11-15T17:36:27;31.23;;;22.25;;
24663;SDS011;12791;50.992;13.788;2022-11-15T17:38:54;34.40;;;23.25;;
24663;SDS011;12791;50.992;13.788;2022-11-15T17:41:23;33.58;;;23.48;;
24663;SDS011;12791;50.992;13.788;2022-11-15T17:43:49;36.08;;;23.27;;
24663;SDS011;12791;50.992;13.788;2022-11-15T17:46:17;29.70;;;21.73;;
24663;SDS011;12791;50.992;13.788;2022-11-15T17:48:46;35.80;;;23.52;;
24663;SDS011;12791;50.992;13.788;2022-11-15T17:51:13;34.78;;;23.33;;
24663;SDS011;12791;50.992;13.788;2022-11-15T17:53:43;32.67;;;22.70;;
24663;SDS011;12791;50.992;13.788;2022-11-15T17:56:11;33.95;;;22.50;;
24663;SDS011;12791;50.992;13.788;2022-11-15T17:58:40;33.28;;;22.25;;
24663;SDS011;12791;50.992;13.788;2022-11-15T18:01:13;33.38;;;22.27;;
24663;SDS011;12791;50.992;13.788;2022-11-15T18:03:43;31.55;;;21.80;;
24663;SDS011;12791;50.992;13.788;2022-11-15T18:06:10;30.90;;;21.02;;
24663;SDS011;12791;50.992;13.788;2022-11-15T18:08:37;34.00;;;21.83;;
24663;SDS011;12791;50.992;13.788;2022-11-15T18:11:06;30.27;;;20.58;;
24663;SDS011;12791;50.992;13.788;2022-11-15T18:13:34;30.27;;;20.95;;
24663;SDS011;12791;50.992;13.788;2022-11-15T18:16:03;30.88;;;21.27;;
24663;SDS011;12791;50.992;13.788;2022-11-15T18:18:32;29.40;;;20.75;;
24663;SDS011;12791;50.992;13.788;2022-11-15T18:21:03;30.70;;;21.30;;
24663;SDS011;12791;50.992;13.788;2022-11-15T18:23:31;30.10;;;20.90;;
24663;SDS011;12791;50.992;13.788;2022-11-15T18:25:59;30.05;;;20.27;;
24663;SDS011;12791;50.992;13.788;2022-11-15T18:28:30;30.85;;;21.75;;
24663;SDS011;12791;50.992;13.788;2022-11-15T18:30:58;30.13;;;22.23;;
24663;SDS011;12791;50.992;13.788;2022-11-15T18:33:26;34.60;;;25.13;;
24663;SDS011;12791;50.992;13.788;2022-11-15T18:35:58;33.50;;;24.40;;
24663;SDS011;12791;50.992;13.788;2022-11-15T18:38:26;36.53;;;27.90;;
24663;SDS011;12791;50.992;13.788;2022-11-15T18:40:54;34.95;;;24.80;;
24663;SDS011;12791;50.992;13.788;2022-11-15T18:43:22;32.03;;;23.08;;
24663;SDS011;12791;50.992;13.788;2022-11-15T18:45:49;29.15;;;21.60;;
24663;SDS011;12791;50.992;13.788;2022-11-15T18:48:15;28.27;;;20.58;;
24663;SDS011;12791;50.992;13.788;2022-11-15T18:50:43;27.08;;;19.75;;